Observations for NANTES CHATEAU, France (LFRS)

LFRS 202230Z AUTO 17005KT 9999 OVC011 10/08 Q1021 TEMPO 0300 FG VV///   
LFRS 202200Z AUTO 16003KT 9999 OVC014 09/08 Q1021 BECMG 4000 BR OVC007  
LFRS 202130Z AUTO 17005KT 9999 OVC014 10/08 Q1021 BECMG 4000 BR OVC007  
LFRS 202100Z AUTO 18005KT 9999 OVC014 10/08 Q1021 BECMG 4000 BR OVC007  
LFRS 202030Z AUTO 19006KT 9999 OVC012 10/08 Q1021 BECMG 4000 BR OVC007  
LFRS 202000Z AUTO 21007KT 9999 OVC012 10/08 Q1021 BECMG 4000 BR OVC007  
LFRS 201930Z AUTO 20008KT 9999 OVC011 10/08 Q1022 BECMG 4000 BR OVC007  
LFRS 201900Z AUTO 21007KT 9999 OVC012 10/08 Q1022 BECMG 4000 BR OVC007  
LFRS 201830Z AUTO 21007KT 9999 OVC013 10/09 Q1022 BECMG 4000 BR OVC007  
LFRS 201800Z AUTO 21007KT 9999 OVC015 11/09 Q1022 BECMG 4000 BR OVC007  
LFRS 201730Z AUTO 22004KT 9999 OVC015 11/09 Q1022 BECMG 4000 BR OVC007  
LFRS 201700Z AUTO 22005KT 9999 OVC016 11/10 Q1022 BECMG 4000 BR OVC007  
LFRS 201630Z AUTO 20005KT 9999 OVC016 12/10 Q1022 BECMG 4000 BR OVC007  
LFRS 201600Z AUTO 20006KT 9999 OVC018 12/10 Q1022 NOSIG 
LFRS 201530Z AUTO 19007KT 9999 OVC017 12/10 Q1022 NOSIG 
LFRS 201500Z AUTO 19008KT 9999 BKN015 OVC020 12/10 Q1022 NOSIG  
LFRS 201430Z AUTO 20008KT 9999 OVC019 12/10 Q1022 NOSIG 
LFRS 201400Z AUTO 21009KT 9999 OVC022 13/11 Q1022 NOSIG 
LFRS 201330Z AUTO 21008KT 9999 FEW013 BKN023 13/11 Q1022 NOSIG  
LFRS 201300Z AUTO 20006KT 9999 BKN022 12/11 Q1023 NOSIG 
LFRS 201230Z AUTO 19006KT 9999 FEW009 OVC022 12/11 Q1023 NOSIG  
LFRS 201200Z AUTO 18005KT 9999 BKN006 OVC025 11/11 Q1023 BECMG BKN020   
LFRS 201130Z AUTO 17006KT 9000 OVC004 10/10 Q1024 BECMG BKN020  
LFRS 201100Z AUTO 17006KT 8000 BKN003 BKN018 OVC023 09/09 Q1024 BECMG BKN016
LFRS 201030Z AUTO 18005KT 7000 3000 OVC002 08/08 Q1024 BECMG BKN016 
LFRS 201000Z AUTO 18007KT 3400 BR OVC002 07/07 Q1024 BECMG 9999 NSW BKN016  
LFRS 200930Z AUTO 18006KT 0550 0500 R03/1200U R21/1100U FG VV/// 07/07 Q1025 BECMG 9999 NSW BKN016  
LFRS 200900Z AUTO 17004KT 0500 0450 R03/0500D R21/1100D FG VV/// 06/06 Q1024 BECMG 9999 NSW BKN016  
LFRS 200830Z AUTO 15004KT 0550 0500 R03/0750U R21/0900U FG VV/// 06/06 Q1024 BECMG 9999 NSW BKN016  
LFRS 200800Z AUTO 15004KT 0300 0250 R03/0325N R21/0400N FG VV/// 06/06 Q1024 BECMG 9999 NSW BKN016  
LFRS 200730Z AUTO 13003KT 0350 0300 R03/0375N R21/0450D FG VV/// 06/05 Q1024 BECMG 9999 NSW BKN016  
LFRS 200700Z AUTO 12003KT 0450 0400 R03/0500N R21/0650U FG VV/// 06/06 Q1024 TEMPO 0300 
LFRS 200630Z AUTO 00000KT 0500 0450 R03/0800N R21/0600U FG VV/// 06/06 Q1024 TEMPO 0300 
LFRS 200600Z AUTO 19002KT 0400 0350 R03/0550U R21/0550N FG VV/// 06/06 Q1024 TEMPO 0300 
LFRS 200530Z AUTO 22002KT 0400 0350 R03/0400N R21/0500N FG VV/// 07/07 Q1024 TEMPO 0300 
LFRS 200500Z AUTO 20004KT 0550 0400 R03/0400D R21/0900U FG VV/// 07/07 Q1024 TEMPO 0300 
LFRS 200430Z AUTO 20002KT 0550 0450 R03/0500N R21/1100D FG VV/// 07/07 Q1024 TEMPO 0300 
LFRS 200400Z AUTO 19002KT 0450 R03/0600U R21/0700N FG VV/// 07/07 Q1024 TEMPO 0300  
LFRS 200330Z AUTO 20002KT 0350 R03/0400N R21/0500N FG VV/// 07/06 Q1024 NOSIG   
LFRS 200300Z AUTO 20002KT 0250 0200 R03/0325N R21/0300N FG VV/// 07/07 Q1024 NOSIG  
LFRS 200230Z AUTO 18002KT 0400 0350 R03/0450D R21/0600U FG VV/// 06/06 Q1024 TEMPO 0300 
LFRS 200200Z AUTO 16001KT 0350 0300 R03/0450D R21/0500D FG VV/// 06/05 Q1024 TEMPO 0600 FG OVC002   
LFRS 200130Z AUTO 00000KT 0450 0400 R03/0500N R21/0450N FG VV/// 06/05 Q1025 TEMPO 0300 OVC002  
LFRS 200100Z AUTO 00000KT 0400 0300 R03/0700U R21/0500N FG VV/// 06/06 Q1025 BECMG 0600 FG OVC002   
LFRS 200030Z AUTO 00000KT 0350 0300 R03/0500D R21/0325N FG VV/// 07/06 Q1025 BECMG 0600 FG OVC002   
LFRS 200000Z AUTO 00000KT 0300 0250 R03/0400N R21/0500D FG BKN004 07/07 Q1025 BECMG 0600 FG 
LFRS 192330Z AUTO 00000KT 1100 0450 R03/0900U R21/0900U BCFG SCT006 SCT029 08/07 Q1025 BECMG 0600 FG OVC002 
LFRS 192300Z AUTO 20002KT 5000 1800 BR FEW005 BKN028 09/08 Q1025 TEMPO 0500 FG VV///
LFRS 192230Z AUTO 19004KT 6000 OVC026 10/09 Q1025 TEMPO 0500 FG VV///   
LFRS 192200Z AUTO 00000KT 7000 FEW006 OVC026 10/09 Q1026 BECMG 3000 BR BKN005